Dades meteomassalio
Diari Summary for Gener 11, 2018 Units:  English    Metric   Both
« Previous Day
Next Day »
Diari Semanal Mensual Anual Personalitzat
  Maxima: Minima: Mijana:
Temperatura: TemperatureC °F 0.6 °F 6.4 °F
Rosada: DewpointC °F -3.7 °F 1.3 °F
Humitat: Humidity % 55 % 69 %
Velocitat del vent: WindSpeedKMH mph 0.0 mph 25.7 mph
Racha vent: WindSpeedGustKMH mph - -
Vent:- - NW
Pressio: PressurehPa in 1019.5 in -
Pluja: 0.0 in    
Historical Graphs
 
 
Tabular Data for Gener 11, 2018
Time Temperature Dew Point Pressure Wind Wind Speed Wind Gust Humidity Rainfall Rate (Hourly) solar Conditions
TemperatureC °F DewpointC °F PressurehPa in Calm     Humidity % HourlyPrecipMM in SolarRadiationWatts/m^2 W/m2 Conditions
01:15 7.8 °F 2.7 °F 1020.5 in NNW 40.7 mph 40.7 mph 70 % 0.0 in 0.0 W/m2 CLR
01:31 6.7 °F 2.7 °F 1020.5 in NNW 31.5 mph 31.5 mph 76 % 0.0 in 0.0 W/m2 CLR
02:05 6.7 °F 2.7 °F 1020.2 in NW 29.6 mph 29.6 mph 76 % 0.0 in 0.0 W/m2 CLR
02:07 6.7 °F 2.7 °F 1020.5 in NNW 27.8 mph 27.8 mph 76 % 0.0 in 0.0 W/m2 CLR
02:08 6.7 °F 2.7 °F 1020.5 in NW 24.1 mph 24.1 mph 76 % 0.0 in 0.0 W/m2 CLR
02:10 6.7 °F 2.6 °F 1020.5 in NNW 24.1 mph 24.1 mph 75 % 0.0 in 0.0 W/m2 CLR
02:21 6.7 °F 2.6 °F 1020.2 in North 22.2 mph 22.2 mph 75 % 0.0 in 0.0 W/m2 CLR
02:27 6.7 °F 2.6 °F 1020.2 in NNW 27.8 mph 27.8 mph 75 % 0.0 in 0.0 W/m2 CLR
02:32 6.7 °F 2.6 °F 1020.2 in NW 24.1 mph 24.1 mph 75 % 0.0 in 0.0 W/m2 CLR
02:38 6.1 °F 1.8 °F 1020.2 in NW 24.1 mph 24.1 mph 74 % 0.0 in 0.0 W/m2 CLR
02:47 6.1 °F 1.6 °F 1020.2 in NW 20.4 mph 20.4 mph 73 % 0.0 in 0.0 W/m2 CLR
03:02 5.6 °F 0.7 °F 1020.2 in NW 24.1 mph 24.1 mph 71 % 0.0 in 0.0 W/m2 CLR
03:08 5.6 °F 0.7 °F 1020.2 in NNW 19.3 mph 19.3 mph 71 % 0.0 in 0.0 W/m2 CLR
03:25 5.0 °F 0.4 °F 1020.2 in NNW 18.5 mph 18.5 mph 72 % 0.0 in 0.0 W/m2 CLR
03:36 5.0 °F 0.6 °F 1019.9 in NW 16.7 mph 16.7 mph 73 % 0.0 in 0.0 W/m2 CLR
03:52 4.4 °F 0.0 °F 1019.9 in NW 16.1 mph 16.1 mph 73 % 0.0 in 0.0 W/m2 CLR
03:59 4.4 °F -0.2 °F 1019.9 in NW 14.8 mph 14.8 mph 72 % 0.0 in 0.0 W/m2 CLR
04:05 5.0 °F 0.4 °F 1019.9 in NW 18.5 mph 18.5 mph 72 % 0.0 in 0.0 W/m2 CLR
04:12 4.4 °F -0.2 °F 1019.9 in NW 18.5 mph 18.5 mph 72 % 0.0 in 0.0 W/m2 CLR
04:17 5.0 °F 0.2 °F 1019.9 in NW 20.4 mph 20.4 mph 71 % 0.0 in 0.0 W/m2 CLR
04:25 5.0 °F 0.0 °F 1019.5 in NW 25.9 mph 25.9 mph 70 % 0.0 in 0.0 W/m2 CLR
04:51 5.0 °F 0.2 °F 1019.9 in NNW 20.9 mph 20.9 mph 71 % 0.0 in 0.0 W/m2 CLR
04:58 5.0 °F 0.2 °F 1019.9 in NW 11.1 mph 11.1 mph 71 % 0.0 in 0.0 W/m2 CLR
05:09 4.4 °F -0.3 °F 1019.9 in NNW 19.3 mph 19.3 mph 71 % 0.0 in 0.0 W/m2 CLR
05:18 4.4 °F -0.3 °F 1019.5 in NW 22.2 mph 22.2 mph 71 % 0.0 in 0.0 W/m2 CLR
05:29 4.4 °F -0.3 °F 1019.9 in NW 24.1 mph 24.1 mph 71 % 0.0 in 0.0 W/m2 CLR
05:36 4.4 °F -0.3 °F 1019.5 in NW 24.1 mph 24.1 mph 71 % 0.0 in 0.0 W/m2 CLR
05:42 4.4 °F -0.3 °F 1019.5 in NW 24.1 mph 24.1 mph 71 % 0.0 in 0.0 W/m2 CLR
05:47 4.4 °F -0.6 °F 1019.9 in NW 24.1 mph 24.1 mph 70 % 0.0 in 0.0 W/m2 CLR
06:05 5.0 °F 0.0 °F 1019.9 in NW 18.5 mph 18.5 mph 70 % 0.0 in 0.0 W/m2 CLR
06:11 5.0 °F 0.0 °F 1019.9 in NNW 20.4 mph 20.4 mph 70 % 0.0 in 0.0 W/m2 CLR
06:23 5.0 °F 0.2 °F 1019.9 in NW 13.0 mph 13.0 mph 71 % 0.0 in 0.0 W/m2 CLR
06:28 5.0 °F 0.2 °F 1019.9 in NW 11.1 mph 11.1 mph 71 % 0.0 in 0.0 W/m2 CLR
06:35 4.4 °F -0.2 °F 1019.5 in NW 11.1 mph 11.1 mph 72 % 0.0 in 0.0 W/m2 CLR
06:44 4.4 °F -0.3 °F 1019.5 in NW 13.0 mph 13.0 mph 71 % 0.0 in 0.0 W/m2 CLR
06:52 4.4 °F -0.3 °F 1019.5 in NW 13.0 mph 13.0 mph 71 % 0.0 in 0.0 W/m2 CLR
07:00 3.9 °F -0.9 °F 1019.5 in NW 9.3 mph 9.3 mph 71 % 0.0 in 0.0 W/m2 CLR
07:12 2.8 °F -1.8 °F 1019.9 in Calm     72 % 0.0 in 0.0 W/m2 CLR
07:21 2.2 °F -2.3 °F 1019.9 in Calm     72 % 0.0 in 0.0 W/m2 CLR
07:30 1.7 °F -2.8 °F 1019.9 in Calm     72 % 0.0 in 0.0 W/m2 CLR
07:36 1.7 °F -2.8 °F 1019.9 in WNW 5.6 mph 5.6 mph 72 % 0.0 in 0.0 W/m2 CLR
07:53 1.1 °F -3.4 °F 1019.9 in WNW 5.6 mph 5.6 mph 72 % 0.0 in 0.0 W/m2 CLR
08:02 1.1 °F -3.4 °F 1020.2 in NW 14.8 mph 14.8 mph 72 % 0.0 in 0.0 W/m2 CLR
08:14 0.6 °F -3.7 °F 1020.2 in NW 13.0 mph 13.0 mph 73 % 0.0 in 0.0 W/m2 OVC
08:32 3.3 °F -1.2 °F 1019.9 in NW 25.9 mph 25.9 mph 72 % 0.0 in 9.0 W/m2 BKN
08:52 5.0 °F 0.2 °F 1020.2 in NW 20.9 mph 20.9 mph 71 % 0.0 in 16.0 W/m2 BKN
09:03 5.0 °F 0.2 °F 1020.5 in NW 18.5 mph 18.5 mph 71 % 0.0 in 37.0 W/m2 BKN
09:12 5.0 °F 0.2 °F 1020.9 in NNW 14.8 mph 14.8 mph 71 % 0.0 in 58.0 W/m2 SCT
09:18 5.0 °F 0.4 °F 1020.9 in NW 7.4 mph 7.4 mph 72 % 0.0 in 69.0 W/m2 SCT
09:41 5.6 °F 0.9 °F 1020.9 in NW 14.8 mph 14.8 mph 72 % 0.0 in 167.0 W/m2 CLR
09:48 6.1 °F 1.4 °F 1020.9 in NW 18.5 mph 18.5 mph 72 % 0.0 in 169.0 W/m2 CLR
09:55 6.1 °F 1.4 °F 1020.9 in NW 22.2 mph 22.2 mph 72 % 0.0 in 179.0 W/m2 CLR
10:01 6.1 °F 1.4 °F 1020.9 in NNW 31.5 mph 31.5 mph 72 % 0.0 in 199.0 W/m2 CLR
10:13 6.7 °F 2.0 °F 1021.2 in North 24.1 mph 24.1 mph 72 % 0.0 in 234.0 W/m2 CLR
10:19 6.7 °F 1.8 °F 1021.2 in NNW 22.2 mph 22.2 mph 71 % 0.0 in 253.0 W/m2 CLR
10:36 6.7 °F 1.8 °F 1021.2 in NNW 24.1 mph 24.1 mph 71 % 0.0 in 322.0 W/m2 CLR
10:43 7.2 °F 2.3 °F 1021.6 in NNE 19.3 mph 20.0 mph 71 % 0.0 in 316.0 W/m2 CLR
11:19 7.8 °F 2.7 °F 1021.6 in North 27.8 mph 27.8 mph 70 % 0.0 in 362.0 W/m2 CLR
11:34 8.3 °F 3.2 °F 1021.6 in NW 25.9 mph 25.9 mph 70 % 0.0 in 388.0 W/m2 CLR
11:55 8.9 °F 3.3 °F 1021.6 in NNW 29.0 mph 29.0 mph 68 % 0.0 in 130.0 W/m2 CLR
12:16 8.9 °F 2.9 °F 1021.6 in NNW 42.6 mph 42.6 mph 66 % 0.0 in 153.0 W/m2 CLR
12:39 8.9 °F 2.9 °F 1021.2 in NNW 33.3 mph 33.3 mph 66 % 0.0 in 352.0 W/m2 CLR
12:45 8.9 °F 2.7 °F 1021.2 in NNW 37.0 mph 37.0 mph 65 % 0.0 in 209.0 W/m2 CLR
13:03 9.4 °F 2.9 °F 1021.2 in North 32.2 mph 32.2 mph 64 % 0.0 in 239.0 W/m2 CLR
13:13 9.4 °F 2.9 °F 1020.9 in North 40.2 mph 40.2 mph 64 % 0.0 in 443.0 W/m2 CLR
13:21 9.4 °F 3.2 °F 1020.9 in NNW 31.5 mph 31.5 mph 65 % 0.0 in 178.0 W/m2 CLR
13:30 9.4 °F 3.2 °F 1020.9 in NNW 27.8 mph 27.8 mph 65 % 0.0 in 399.0 W/m2 CLR
13:42 9.4 °F 2.1 °F 1020.9 in NNW 48.1 mph 48.1 mph 60 % 0.0 in 536.0 W/m2 CLR
13:51 10.6 °F 3.1 °F 1020.9 in North 40.7 mph 40.7 mph 60 % 0.0 in 489.0 W/m2 CLR
14:03 10.6 °F 2.9 °F 1020.9 in North 50.0 mph 50.0 mph 59 % 0.0 in 446.0 W/m2 CLR
14:18 10.6 °F 2.9 °F 1020.5 in North 46.3 mph 46.3 mph 59 % 0.0 in 436.0 W/m2 CLR
14:24 10.6 °F 2.9 °F 1020.5 in NNW 25.9 mph 25.9 mph 59 % 0.0 in 313.0 W/m2 CLR
14:30 10.6 °F 2.9 °F 1020.5 in NNE 29.6 mph 29.6 mph 59 % 0.0 in 446.0 W/m2 CLR
14:38 10.0 °F 1.9 °F 1020.9 in North 42.6 mph 42.6 mph 57 % 0.0 in 148.0 W/m2 CLR
14:52 10.0 °F 2.3 °F 1020.9 in NW 33.3 mph 33.3 mph 59 % 0.0 in 404.0 W/m2 CLR
15:07 9.4 °F 1.8 °F 1021.2 in NNW 42.6 mph 42.6 mph 59 % 0.0 in 44.0 W/m2 SCT
15:13 9.4 °F 2.1 °F 1021.2 in North 33.3 mph 33.3 mph 60 % 0.0 in 148.0 W/m2 FEW
15:56 10.6 °F 1.9 °F 1021.2 in North 38.9 mph 38.9 mph 55 % 0.0 in 149.0 W/m2 CLR
16:09 10.0 °F 1.6 °F 1021.6 in North 48.1 mph 48.1 mph 56 % 0.0 in 86.0 W/m2 CLR
16:23 9.4 °F 1.3 °F 1021.6 in NW 50.0 mph 50.0 mph 57 % 0.0 in 186.0 W/m2 CLR
16:49 8.9 °F 1.6 °F 1021.2 in NW 35.2 mph 35.2 mph 60 % 0.0 in 49.0 W/m2 FEW
17:00 8.9 °F 2.0 °F 1021.6 in NW 46.3 mph 46.3 mph 62 % 0.0 in 47.0 W/m2 SCT
17:01 8.9 °F 2.0 °F 1021.2 in NW 37.0 mph 37.0 mph 62 % 0.0 in 47.0 W/m2 SCT
17:07 8.9 °F 2.0 °F 1021.6 in North 42.6 mph 42.6 mph 62 % 0.0 in 40.0 W/m2 BKN
17:15 8.9 °F 2.2 °F 1021.6 in North 43.4 mph 43.4 mph 63 % 0.0 in 32.0 W/m2 BKN
17:20 8.9 °F 2.2 °F 1021.6 in NNW 42.6 mph 42.6 mph 63 % 0.0 in 30.0 W/m2 BKN
17:35 8.3 °F 1.4 °F 1021.9 in NNW 55.5 mph 55.5 mph 62 % 0.0 in 16.0 W/m2 BKN
17:52 8.3 °F 1.7 °F 1022.2 in NNW 48.1 mph 48.1 mph 63 % 0.0 in 5.0 W/m2 OVC
18:07 7.8 °F 1.6 °F 1021.9 in North 33.3 mph 33.3 mph 65 % 0.0 in 0.0 W/m2 CLR
18:16 7.8 °F 2.1 °F 1022.2 in NW 18.5 mph 18.5 mph 67 % 0.0 in 0.0 W/m2 CLR
18:37 7.2 °F 1.5 °F 1022.6 in NW 20.9 mph 20.9 mph 67 % 0.0 in 0.0 W/m2 CLR
18:47 7.2 °F 1.5 °F 1022.6 in NW 18.5 mph 18.5 mph 67 % 0.0 in 0.0 W/m2 CLR
18:59 7.2 °F 1.5 °F 1022.6 in NW 20.9 mph 20.9 mph 67 % 0.0 in 0.0 W/m2 CLR
19:07 6.7 °F 1.2 °F 1022.9 in North 24.1 mph 27.4 mph 68 % 0.0 in 0.0 W/m2 CLR
19:19 7.2 °F 1.7 °F 1022.9 in NW 24.1 mph 24.1 mph 68 % 0.0 in 0.0 W/m2 CLR
19:41 6.7 °F 1.4 °F 1023.2 in NW 40.7 mph 40.7 mph 69 % 0.0 in 0.0 W/m2 CLR
20:13 6.7 °F 1.8 °F 1023.6 in NNW 32.2 mph 32.2 mph 71 % 0.0 in 0.0 W/m2 CLR
20:26 6.7 °F 1.8 °F 1023.9 in NNW 31.5 mph 31.5 mph 71 % 0.0 in 0.0 W/m2 CLR
20:36 6.7 °F 2.0 °F 1024.3 in NNW 35.2 mph 35.2 mph 72 % 0.0 in 0.0 W/m2 CLR
20:49 6.7 °F 2.3 °F 1024.3 in NNW 27.8 mph 27.8 mph 74 % 0.0 in 0.0 W/m2 CLR
20:55 6.1 °F 2.0 °F 1024.3 in North 25.9 mph 25.9 mph 75 % 0.0 in 0.0 W/m2 CLR
21:10 6.1 °F 2.2 °F 1023.9 in North 25.9 mph 25.9 mph 76 % 0.0 in 0.0 W/m2 CLR
21:25 6.1 °F 2.2 °F 1024.3 in NW 22.2 mph 22.2 mph 76 % 0.0 in 0.0 W/m2 CLR
21:32 6.1 °F 2.2 °F 1024.3 in NW 29.6 mph 29.6 mph 76 % 0.0 in 0.0 W/m2 CLR
21:41 6.1 °F 2.2 °F 1024.3 in NNW 29.6 mph 29.6 mph 76 % 0.0 in 0.0 W/m2 CLR
21:56 6.1 °F 2.4 °F 1024.6 in WNW 31.5 mph 31.5 mph 77 % 0.0 in 0.0 W/m2 CLR
22:05 6.1 °F 2.6 °F 1024.6 in NW 35.2 mph 35.2 mph 78 % 0.0 in 0.0 W/m2 CLR
22:12 6.1 °F 2.6 °F 1024.6 in NNW 35.2 mph 35.2 mph 78 % 0.0 in 0.0 W/m2 CLR
22:36 6.1 °F 2.6 °F 1024.6 in NNW 29.6 mph 29.6 mph 78 % 0.0 in 0.0 W/m2 CLR
22:43 5.6 °F 2.0 °F 1024.6 in NW 33.3 mph 33.3 mph 78 % 0.0 in 0.0 W/m2 CLR
22:56 5.6 °F 2.0 °F 1024.3 in NW 25.9 mph 25.9 mph 78 % 0.0 in 0.0 W/m2 CLR
23:02 5.6 °F 2.0 °F 1024.6 in WNW 16.7 mph 16.7 mph 78 % 0.0 in 0.0 W/m2 CLR
23:03 5.6 °F 2.0 °F 1024.3 in WNW 16.7 mph 16.7 mph 78 % 0.0 in 0.0 W/m2 CLR
23:13 5.6 °F 1.8 °F 1024.9 in NW 9.3 mph 9.3 mph 77 % 0.0 in 0.0 W/m2 CLR
23:33 6.1 °F 2.2 °F 1024.9 in WNW 22.5 mph 22.5 mph 76 % 0.0 in 0.0 W/m2 CLR
23:44 6.1 °F 2.2 °F 1024.9 in NW 18.5 mph 18.5 mph 76 % 0.0 in 0.0 W/m2 CLR
23:52 6.1 °F 2.2 °F 1024.9 in NNW 16.7 mph 16.7 mph 76 % 0.0 in 0.0 W/m2 CLR
Lo Temps de Massalio
Compliments of Weather Underground - 768 kb